Time;durP1;ratioP1;P1;durP2;ratioP2;P2;SDS_P1;SDS_P2;PMS_P1;PMS_P2;Temp;Humidity;BMP_temperature;BMP_pressure;BME280_temperature;BME280_humidity;BME280_pressure;Samples;Min_cycle;Max_cycle;Signal;HPM_P1;HPM_P2
2021/06/24 00:00:51;;;;;;;2.97;2.07;;;23.50;65.00;;;;;;5026933;28;20448;-48
2021/06/24 00:03:17;;;;;;;3.60;2.10;;;23.50;64.50;;;;;;5016618;28;20435;-49
2021/06/24 00:05:43;;;;;;;3.53;2.20;;;23.50;64.60;;;;;;5022881;28;20432;-48
2021/06/24 00:08:10;;;;;;;2.10;1.80;;;23.40;64.50;;;;;;5029698;28;20664;-47
2021/06/24 00:10:37;;;;;;;2.60;1.80;;;23.40;65.50;;;;;;5028360;28;20440;-47
2021/06/24 00:13:04;;;;;;;2.33;1.80;;;23.40;64.30;;;;;;5022291;28;20479;-50
2021/06/24 00:15:32;;;;;;;1.73;1.63;;;23.40;64.40;;;;;;5022360;28;20444;-51
2021/06/24 00:17:58;;;;;;;2.27;2.10;;;23.30;64.70;;;;;;5024845;28;20494;-52
2021/06/24 00:20:24;;;;;;;3.27;1.90;;;23.20;64.80;;;;;;5025956;28;20448;-52
2021/06/24 00:22:50;;;;;;;2.20;2.00;;;23.20;64.80;;;;;;5023588;28;20567;-51
2021/06/24 00:25:16;;;;;;;2.10;2.00;;;23.20;64.90;;;;;;5026740;28;20193;-52
2021/06/24 00:27:41;;;;;;;3.43;1.90;;;23.20;65.20;;;;;;5025349;28;20487;-51
2021/06/24 00:30:08;;;;;;;1.80;1.70;;;23.20;66.00;;;;;;5024491;28;20197;-52
2021/06/24 00:32:34;;;;;;;1.97;1.87;;;23.40;65.40;;;;;;5025182;28;20324;-52
2021/06/24 00:35:01;;;;;;;1.87;1.77;;;23.50;65.00;;;;;;5024274;28;20991;-52
2021/06/24 00:37:30;;;;;;;2.67;2.07;;;23.50;65.00;;;;;;5028844;28;20225;-51
2021/06/24 00:39:57;;;;;;;1.90;1.80;;;23.50;64.10;;;;;;5021589;28;20490;-52
2021/06/24 00:42:24;;;;;;;2.10;2.00;;;23.50;63.70;;;;;;5023316;28;20444;-51
2021/06/24 00:44:50;;;;;;;2.53;2.00;;;23.40;63.50;;;;;;5023831;28;20487;-53
2021/06/24 00:47:15;;;;;;;3.27;1.90;;;23.50;63.80;;;;;;5027854;28;20495;-51
2021/06/24 00:49:41;;;;;;;1.70;1.60;;;23.40;63.80;;;;;;5027451;28;20482;-51
2021/06/24 00:52:07;;;;;;;3.70;1.83;;;23.40;64.10;;;;;;5007035;28;20307;-52
2021/06/24 00:54:33;;;;;;;6.70;2.20;;;23.40;64.00;;;;;;5021109;28;20319;-52
2021/06/24 00:57:02;;;;;;;1.77;1.67;;;23.40;64.20;;;;;;5028512;28;20621;-52
2021/06/24 00:59:28;;;;;;;2.00;1.90;;;23.40;64.40;;;;;;5025050;28;20608;-48
2021/06/24 01:01:53;;;;;;;3.13;2.17;;;23.40;64.40;;;;;;5021910;28;20444;-50
2021/06/24 01:04:21;;;;;;;1.90;1.80;;;23.40;64.20;;;;;;5022534;28;20978;-49
2021/06/24 01:06:52;;;;;;;2.17;2.07;;;23.50;64.20;;;;;;5025615;28;20228;-51
2021/06/24 01:09:18;;;;;;;2.80;2.10;;;23.50;64.30;;;;;;5023544;28;20455;-50
2021/06/24 01:11:45;;;;;;;3.27;2.50;;;23.50;64.40;;;;;;4990381;28;1063576;-51
2021/06/24 01:14:12;;;;;;;2.60;2.10;;;23.50;64.80;;;;;;5028260;28;20197;-50
2021/06/24 01:16:38;;;;;;;2.90;1.93;;;23.50;64.60;;;;;;5024268;28;20483;-52
2021/06/24 01:19:05;;;;;;;2.10;1.90;;;23.50;64.30;;;;;;5025498;28;20578;-48
2021/06/24 01:21:31;;;;;;;2.30;2.00;;;23.60;64.20;;;;;;5023791;28;20496;-52
2021/06/24 01:23:56;;;;;;;2.00;1.80;;;23.60;64.30;;;;;;5023240;28;20450;-51
2021/06/24 01:26:22;;;;;;;2.53;1.80;;;23.60;64.30;;;;;;5027554;28;20673;-50
2021/06/24 01:28:49;;;;;;;2.30;2.10;;;23.60;64.20;;;;;;5026274;28;20217;-48
2021/06/24 01:31:15;;;;;;;3.23;1.83;;;23.60;63.90;;;;;;5026822;28;20436;-52
2021/06/24 01:33:42;;;;;;;4.50;2.03;;;23.70;64.00;;;;;;5028225;28;20526;-47
2021/06/24 01:36:08;;;;;;;2.10;2.00;;;23.60;63.70;;;;;;5026163;28;20527;-49
2021/06/24 01:38:34;;;;;;;2.07;1.50;;;23.60;63.80;;;;;;5027630;28;20527;-51
2021/06/24 01:41:00;;;;;;;2.80;2.17;;;23.70;63.50;;;;;;5025646;28;20206;-49
2021/06/24 01:43:26;;;;;;;3.60;2.70;;;23.70;63.60;;;;;;5029581;28;20439;-51
2021/06/24 01:45:54;;;;;;;1.90;1.80;;;23.70;63.50;;;;;;5017675;28;20554;-52
2021/06/24 01:48:21;;;;;;;1.90;1.80;;;23.70;63.50;;;;;;5023994;28;20451;-52
2021/06/24 01:50:48;;;;;;;1.70;1.60;;;23.60;63.50;;;;;;5024045;28;20476;-48
2021/06/24 01:53:14;;;;;;;2.83;2.33;;;23.60;63.60;;;;;;5026062;28;20432;-51
2021/06/24 01:55:40;;;;;;;2.87;2.10;;;23.60;63.70;;;;;;5026436;28;20908;-51
2021/06/24 01:58:08;;;;;;;2.03;1.93;;;23.60;63.60;;;;;;5026557;28;20845;-49
2021/06/24 02:00:34;;;;;;;2.60;2.40;;;23.60;63.60;;;;;;5028047;28;20802;-51
2021/06/24 02:03:01;;;;;;;2.43;2.23;;;23.50;63.50;;;;;;5027904;28;20439;-49
2021/06/24 02:05:26;;;;;;;2.23;2.03;;;23.50;64.40;;;;;;5023801;28;20526;-51
2021/06/24 02:07:52;;;;;;;2.57;2.13;;;23.40;64.30;;;;;;5026284;28;20464;-51
2021/06/24 02:10:19;;;;;;;3.33;2.47;;;23.40;64.70;;;;;;5029552;28;20263;-50
2021/06/24 02:12:44;;;;;;;4.33;2.70;;;23.40;64.80;;;;;;5026019;28;20240;-52
2021/06/24 02:15:12;;;;;;;2.43;2.23;;;23.40;65.00;;;;;;5026894;28;20444;-51
2021/06/24 02:17:38;;;;;;;2.97;2.63;;;23.40;64.80;;;;;;5028075;28;20241;-49
2021/06/24 02:20:07;;;;;;;3.00;2.73;;;23.30;65.10;;;;;;5026519;28;20647;-52
2021/06/24 02:22:33;;;;;;;2.97;2.77;;;23.10;65.90;;;;;;5031186;28;20450;-52
2021/06/24 02:24:58;;;;;;;2.80;2.60;;;22.90;66.00;;;;;;5024263;28;20447;-50
2021/06/24 02:27:24;;;;;;;2.17;2.03;;;22.40;68.00;;;;;;5028882;28;20490;-52
2021/06/24 02:29:49;;;;;;;2.77;2.47;;;22.00;70.20;;;;;;5028925;28;20194;-47
2021/06/24 02:32:15;;;;;;;2.70;2.00;;;21.80;70.80;;;;;;5032503;28;20193;-51
2021/06/24 02:34:43;;;;;;;2.60;2.40;;;22.10;70.50;;;;;;5031204;28;20273;-51
2021/06/24 02:37:08;;;;;;;5.47;2.27;;;22.10;70.50;;;;;;5029567;28;20216;-51
2021/06/24 02:39:34;;;;;;;2.23;2.10;;;21.90;70.50;;;;;;5028673;28;20506;-52
2021/06/24 02:41:59;;;;;;;2.70;2.50;;;21.80;70.30;;;;;;5028595;28;20197;-53
2021/06/24 02:44:26;;;;;;;2.93;2.73;;;22.00;70.80;;;;;;5029200;28;20200;-52
2021/06/24 02:46:52;;;;;;;3.37;2.53;;;22.10;70.00;;;;;;5031395;28;21568;-52
2021/06/24 02:49:17;;;;;;;4.07;3.13;;;22.30;68.80;;;;;;5027514;28;20453;-51
2021/06/24 02:51:46;;;;;;;3.37;3.07;;;22.40;68.20;;;;;;5032744;28;20555;-52
2021/06/24 02:54:12;;;;;;;2.83;2.30;;;22.50;68.10;;;;;;5027198;28;20200;-52
2021/06/24 02:56:41;;;;;;;4.30;2.50;;;22.20;68.90;;;;;;5028993;28;20836;-51
2021/06/24 02:59:08;;;;;;;3.03;2.73;;;22.20;69.20;;;;;;5024147;28;20308;-52
2021/06/24 03:01:34;;;;;;;3.00;2.73;;;22.30;68.60;;;;;;5030417;28;20793;-52
2021/06/24 03:04:00;;;;;;;2.60;2.40;;;22.40;68.10;;;;;;5032647;28;20436;-48
2021/06/24 03:06:26;;;;;;;4.20;2.90;;;22.60;68.00;;;;;;5030220;28;20514;-52
2021/06/24 03:08:51;;;;;;;3.33;2.70;;;22.30;68.00;;;;;;5026653;28;20208;-48
2021/06/24 03:11:18;;;;;;;2.73;2.40;;;22.20;68.80;;;;;;5020808;28;20225;-51
2021/06/24 03:13:46;;;;;;;3.00;2.80;;;22.10;69.30;;;;;;5022664;28;20247;-49
2021/06/24 03:16:11;;;;;;;3.20;2.90;;;22.10;69.10;;;;;;5026293;28;20948;-50
2021/06/24 03:18:37;;;;;;;3.60;3.13;;;22.00;69.60;;;;;;5026979;28;20455;-51
2021/06/24 03:21:02;;;;;;;3.27;2.97;;;22.10;69.50;;;;;;5028081;28;20283;-49
2021/06/24 03:23:28;;;;;;;3.23;2.77;;;22.20;69.00;;;;;;5030095;28;20185;-47
2021/06/24 03:25:55;;;;;;;4.13;3.20;;;21.70;69.90;;;;;;5028616;28;20277;-47
2021/06/24 03:28:21;;;;;;;2.50;2.30;;;21.70;70.90;;;;;;5029629;28;20185;-48
2021/06/24 03:30:46;;;;;;;4.03;2.90;;;21.80;70.30;;;;;;5024323;28;20447;-47
2021/06/24 03:33:12;;;;;;;2.93;2.63;;;21.90;69.40;;;;;;5023985;28;20645;-48
2021/06/24 03:35:37;;;;;;;5.97;3.00;;;22.00;69.20;;;;;;5022683;28;20280;-49
2021/06/24 03:38:03;;;;;;;3.20;3.00;;;22.20;68.80;;;;;;5030734;28;20641;-48
2021/06/24 03:40:29;;;;;;;3.20;2.90;;;22.40;68.30;;;;;;5027277;28;20645;-47
2021/06/24 03:42:55;;;;;;;4.97;2.90;;;22.40;67.60;;;;;;5023647;28;20189;-47
2021/06/24 03:45:21;;;;;;;4.33;3.03;;;22.40;67.60;;;;;;5028052;28;20440;-48
2021/06/24 03:47:46;;;;;;;4.30;3.30;;;22.50;67.50;;;;;;5031124;28;20189;-48
2021/06/24 03:50:14;;;;;;;2.80;2.60;;;22.60;67.30;;;;;;5023552;28;20193;-47
2021/06/24 03:52:39;;;;;;;2.87;2.30;;;22.60;68.50;;;;;;5029866;28;20273;-47
2021/06/24 03:55:06;;;;;;;3.50;2.90;;;22.90;68.10;;;;;;5025229;28;20543;-47
2021/06/24 03:57:33;;;;;;;3.30;3.00;;;23.20;66.80;;;;;;5025078;28;20259;-47
2021/06/24 03:59:59;;;;;;;3.23;2.93;;;23.40;65.30;;;;;;5023329;28;20432;-47
2021/06/24 04:02:24;;;;;;;2.97;2.47;;;23.50;64.90;;;;;;5025457;28;20447;-46
2021/06/24 04:04:50;;;;;;;3.77;3.30;;;23.80;64.50;;;;;;5029799;28;20196;-48
2021/06/24 04:07:16;;;;;;;3.93;2.97;;;23.90;63.50;;;;;;5031410;28;20676;-48
2021/06/24 04:09:42;;;;;;;3.27;2.97;;;24.10;63.00;;;;;;5027775;28;20549;-46
2021/06/24 04:12:08;;;;;;;2.40;2.20;;;24.20;62.70;;;;;;5021543;28;20495;-48
2021/06/24 04:14:33;;;;;;;2.90;2.70;;;24.30;62.10;;;;;;5026142;28;20239;-47
2021/06/24 04:16:59;;;;;;;2.30;2.10;;;24.50;61.60;;;;;;5030840;28;20475;-48
2021/06/24 04:19:24;;;;;;;3.17;1.93;;;24.70;61.30;;;;;;5029613;28;20197;-46
2021/06/24 04:21:50;;;;;;;3.10;2.17;;;24.80;60.70;;;;;;5025681;28;20204;-46
2021/06/24 04:24:16;;;;;;;2.57;2.37;;;24.90;60.20;;;;;;5025679;28;20201;-47
2021/06/24 04:26:41;;;;;;;3.13;2.83;;;25.00;59.60;;;;;;5027758;28;20197;-47
2021/06/24 04:29:07;;;;;;;2.90;2.70;;;25.00;59.60;;;;;;5015875;28;20222;-47
2021/06/24 04:31:33;;;;;;;3.47;2.53;;;25.10;59.40;;;;;;5022755;28;20272;-48
2021/06/24 04:33:59;;;;;;;5.40;2.47;;;25.20;59.30;;;;;;5022537;28;20228;-47
2021/06/24 04:36:24;;;;;;;2.80;2.30;;;25.20;59.00;;;;;;5028166;28;20643;-47
2021/06/24 04:38:50;;;;;;;3.17;2.87;;;25.30;58.80;;;;;;5025835;28;20532;-49
2021/06/24 04:41:16;;;;;;;3.17;2.70;;;25.30;58.70;;;;;;5024462;28;20649;-47
2021/06/24 04:43:41;;;;;;;9.17;2.70;;;25.40;58.60;;;;;;5026111;28;20189;-48
2021/06/24 04:46:07;;;;;;;3.17;2.97;;;25.40;58.40;;;;;;5024773;28;20665;-49
2021/06/24 04:48:32;;;;;;;2.57;2.37;;;25.50;58.20;;;;;;5024970;28;20194;-47
2021/06/24 04:50:58;;;;;;;3.00;2.80;;;25.50;58.20;;;;;;5022882;28;20221;-48
2021/06/24 04:53:24;;;;;;;3.03;2.83;;;25.60;58.00;;;;;;5025731;28;20193;-49
2021/06/24 04:55:49;;;;;;;2.97;2.70;;;25.60;57.90;;;;;;5027851;28;20532;-47
2021/06/24 04:58:15;;;;;;;4.70;3.30;;;25.60;57.70;;;;;;5026036;28;20221;-47
2021/06/24 05:00:41;;;;;;;3.97;2.43;;;25.60;57.90;;;;;;5021759;28;20205;-48
2021/06/24 05:03:10;;;;;;;2.60;2.40;;;25.60;57.80;;;;;;5025619;28;20193;-47
2021/06/24 05:05:38;;;;;;;2.70;2.17;;;25.70;57.90;;;;;;5028527;28;20194;-48
2021/06/24 05:08:09;;;;;;;3.63;3.33;;;25.80;57.80;;;;;;5021460;28;20503;-48
2021/06/24 05:10:35;;;;;;;4.00;2.97;;;25.70;57.50;;;;;;5024242;28;20819;-49
2021/06/24 05:13:01;;;;;;;3.23;2.93;;;25.70;57.90;;;;;;5020397;28;20482;-52
2021/06/24 05:15:26;;;;;;;4.43;3.33;;;25.80;57.90;;;;;;5021442;28;20440;-51
2021/06/24 05:17:52;;;;;;;3.43;2.77;;;25.80;57.90;;;;;;5021152;28;20235;-52
2021/06/24 05:20:18;;;;;;;2.87;2.50;;;25.90;57.90;;;;;;5027428;28;20200;-52
2021/06/24 05:22:44;;;;;;;3.27;2.97;;;25.90;57.70;;;;;;5027138;28;20444;-51
2021/06/24 05:25:10;;;;;;;2.40;2.20;;;26.00;57.90;;;;;;5024470;28;20201;-52
2021/06/24 05:27:36;;;;;;;6.00;3.20;;;26.00;57.80;;;;;;5027866;28;20579;-50
2021/06/24 05:30:03;;;;;;;3.53;2.57;;;26.10;57.60;;;;;;5027854;28;20444;-52
2021/06/24 05:32:28;;;;;;;4.33;2.37;;;26.10;57.40;;;;;;5027748;28;20665;-50
2021/06/24 05:34:54;;;;;;;4.00;2.93;;;26.10;57.20;;;;;;5021097;28;20486;-52
2021/06/24 05:37:20;;;;;;;4.53;2.93;;;26.20;57.00;;;;;;5019857;28;20256;-48
2021/06/24 05:39:46;;;;;;;3.80;3.00;;;26.20;57.00;;;;;;5023775;28;20230;-52
2021/06/24 05:42:11;;;;;;;3.40;3.10;;;26.30;57.10;;;;;;5024582;28;20604;-52
2021/06/24 05:44:37;;;;;;;3.13;2.60;;;26.30;56.60;;;;;;5020431;28;20197;-51
2021/06/24 05:47:03;;;;;;;4.90;3.20;;;26.10;56.80;;;;;;5022560;28;20203;-51
2021/06/24 05:49:28;;;;;;;3.47;3.07;;;26.10;57.10;;;;;;5020597;28;20212;-49
2021/06/24 05:51:54;;;;;;;3.27;3.07;;;26.10;57.20;;;;;;5021445;28;20713;-52
2021/06/24 05:54:20;;;;;;;3.43;3.20;;;26.20;57.20;;;;;;5029903;28;20247;-52
2021/06/24 05:56:46;;;;;;;3.17;2.97;;;26.10;57.20;;;;;;5029577;28;20703;-52
2021/06/24 05:59:11;;;;;;;4.10;3.50;;;26.10;57.60;;;;;;5028666;28;20300;-50
2021/06/24 06:01:40;;;;;;;3.93;3.63;;;26.10;57.80;;;;;;5025219;28;20579;-48
2021/06/24 06:04:06;;;;;;;4.03;3.60;;;26.20;57.90;;;;;;5031226;28;20193;-49
2021/06/24 06:06:31;;;;;;;5.20;4.20;;;26.20;57.90;;;;;;5033476;28;20916;-50
2021/06/24 06:08:57;;;;;;;4.13;3.83;;;26.20;58.00;;;;;;5029418;28;20198;-49
2021/06/24 06:11:23;;;;;;;3.03;2.83;;;26.20;57.80;;;;;;5029020;28;20200;-52
2021/06/24 06:13:48;;;;;;;3.57;3.27;;;26.20;57.70;;;;;;5029985;28;20211;-51
2021/06/24 06:16:14;;;;;;;3.40;3.20;;;26.30;57.80;;;;;;5031951;28;20204;-47
2021/06/24 06:18:39;;;;;;;4.60;3.70;;;26.30;57.80;;;;;;5027888;28;20246;-50
2021/06/24 06:21:05;;;;;;;4.63;4.23;;;26.30;58.10;;;;;;5026926;28;20197;-51
2021/06/24 06:23:31;;;;;;;5.20;3.30;;;26.30;58.10;;;;;;5027466;28;20190;-51
2021/06/24 06:25:57;;;;;;;3.00;2.80;;;26.40;58.00;;;;;;5030631;28;20731;-48
2021/06/24 06:28:25;;;;;;;3.80;3.07;;;26.40;58.00;;;;;;5030144;28;20861;-47
2021/06/24 06:30:52;;;;;;;3.50;3.20;;;26.40;58.50;;;;;;5026468;28;20948;-50
2021/06/24 06:33:19;;;;;;;5.20;3.13;;;26.30;57.70;;;;;;5026506;28;20931;-50
2021/06/24 06:35:46;;;;;;;3.70;3.40;;;26.30;57.70;;;;;;5029857;28;20821;-48
2021/06/24 06:38:12;;;;;;;3.00;2.80;;;26.30;57.90;;;;;;5026811;28;20479;-50
2021/06/24 06:40:39;;;;;;;4.57;3.33;;;26.20;57.60;;;;;;5026969;28;20440;-48
2021/06/24 06:43:05;;;;;;;4.03;2.70;;;26.10;57.90;;;;;;5031568;28;20963;-48
2021/06/24 06:45:32;;;;;;;4.87;2.80;;;26.10;58.10;;;;;;5030005;28;20945;-50
2021/06/24 06:47:58;;;;;;;4.17;3.20;;;25.80;59.20;;;;;;5020359;28;20432;-48
2021/06/24 06:50:24;;;;;;;4.33;3.30;;;25.80;59.50;;;;;;5031670;28;20446;-48
2021/06/24 06:52:50;;;;;;;3.80;3.47;;;25.90;59.00;;;;;;5024735;28;20202;-50
2021/06/24 06:55:15;;;;;;;3.40;3.20;;;26.00;58.50;;;;;;5019414;28;20439;-47
2021/06/24 06:57:41;;;;;;;4.10;3.37;;;26.00;58.60;;;;;;5022940;28;20233;-47
2021/06/24 07:00:10;;;;;;;3.97;3.03;;;26.10;59.00;;;;;;5026734;28;20225;-52
2021/06/24 07:02:36;;;;;;;3.20;3.00;;;26.10;59.00;;;;;;5031575;28;20285;-50
2021/06/24 07:05:03;;;;;;;3.27;2.97;;;26.00;59.10;;;;;;5027020;28;20437;-52
2021/06/24 07:07:28;;;;;;;4.10;3.60;;;26.10;59.20;;;;;;5030342;28;20440;-52
2021/06/24 07:09:54;;;;;;;3.93;3.57;;;26.10;59.30;;;;;;5031293;28;20428;-51
2021/06/24 07:12:20;;;;;;;4.33;3.50;;;26.20;59.30;;;;;;5029743;28;20241;-52
2021/06/24 07:14:46;;;;;;;3.43;3.23;;;26.30;58.60;;;;;;5028343;28;20240;-52
2021/06/24 07:17:13;;;;;;;6.90;3.10;;;26.40;58.40;;;;;;5028378;28;20657;-52
2021/06/24 07:19:39;;;;;;;2.70;2.50;;;26.40;58.70;;;;;;5025087;28;20452;-53
2021/06/24 07:22:04;;;;;;;3.07;2.70;;;26.50;57.90;;;;;;5025146;28;20997;-53
2021/06/24 07:24:30;;;;;;;3.13;2.77;;;26.50;57.70;;;;;;5020106;28;20229;-51
2021/06/24 07:26:56;;;;;;;2.57;2.37;;;26.50;59.30;;;;;;5026978;28;20193;-51
2021/06/24 07:29:21;;;;;;;3.40;3.20;;;26.50;58.60;;;;;;5027421;28;20923;-51
2021/06/24 07:31:47;;;;;;;3.10;2.00;;;26.80;57.70;;;;;;5027700;28;20193;-51
2021/06/24 07:34:13;;;;;;;2.67;2.47;;;26.90;57.40;;;;;;5030371;28;20279;-52
2021/06/24 07:36:39;;;;;;;3.43;2.57;;;27.10;57.00;;;;;;5031072;28;20683;-50
2021/06/24 07:39:05;;;;;;;4.70;2.50;;;27.20;56.50;;;;;;5028529;28;20929;-51
2021/06/24 07:41:31;;;;;;;2.87;2.63;;;27.40;55.90;;;;;;5022639;28;20463;-51
2021/06/24 07:43:56;;;;;;;2.70;2.50;;;27.50;55.80;;;;;;5028769;28;20630;-49
2021/06/24 07:46:26;;;;;;;2.43;2.23;;;27.50;55.00;;;;;;5028622;28;20205;-51
2021/06/24 07:48:52;;;;;;;3.00;2.80;;;27.40;55.30;;;;;;5028050;28;20630;-51
2021/06/24 07:51:18;;;;;;;4.03;2.50;;;27.50;55.20;;;;;;5030992;28;20460;-52
2021/06/24 07:53:44;;;;;;;3.63;2.67;;;27.60;54.20;;;;;;5029183;28;20211;-50
2021/06/24 07:56:10;;;;;;;3.07;2.87;;;27.40;54.00;;;;;;5029533;28;20671;-49
2021/06/24 07:58:36;;;;;;;2.60;2.50;;;27.10;53.40;;;;;;5030668;28;20255;-52
2021/06/24 08:01:04;;;;;;;2.77;2.57;;;27.10;53.30;;;;;;5026534;28;20920;-52
2021/06/24 08:03:29;;;;;;;2.97;2.77;;;26.80;53.40;;;;;;5030060;28;20443;-51
2021/06/24 08:05:55;;;;;;;3.00;2.80;;;26.90;53.90;;;;;;5028279;28;20870;-51
2021/06/24 08:08:21;;;;;;;2.97;2.67;;;27.00;54.20;;;;;;5021270;28;20243;-51
2021/06/24 08:10:47;;;;;;;2.77;2.57;;;27.10;54.20;;;;;;5020833;28;20201;-50
2021/06/24 08:13:12;;;;;;;4.00;2.60;;;26.90;53.90;;;;;;5030176;28;20237;-48
2021/06/24 08:15:38;;;;;;;2.40;2.20;;;26.80;54.60;;;;;;5022821;28;20201;-52
2021/06/24 08:18:04;;;;;;;12.80;2.93;;;26.90;55.40;;;;;;5030069;28;20227;-52
2021/06/24 08:20:30;;;;;;;2.30;2.10;;;27.00;55.20;;;;;;5025447;28;20213;-52
2021/06/24 08:22:56;;;;;;;3.30;3.00;;;27.20;54.90;;;;;;5026935;28;20802;-53
2021/06/24 08:25:22;;;;;;;7.67;3.00;;;27.40;54.50;;;;;;5022225;28;20209;-53
2021/06/24 08:27:49;;;;;;;8.07;2.93;;;27.50;53.70;;;;;;5024359;28;20818;-51
2021/06/24 08:30:15;;;;;;;4.07;3.00;;;27.70;53.90;;;;;;5024729;28;20439;-52
2021/06/24 08:32:41;;;;;;;3.37;3.10;;;28.00;53.50;;;;;;5027863;28;20508;-51
2021/06/24 08:35:11;;;;;;;3.53;2.73;;;28.20;52.60;;;;;;5020445;28;20567;-51
2021/06/24 08:37:37;;;;;;;2.87;2.67;;;28.40;51.70;;;;;;5025774;28;22025;-51
2021/06/24 08:40:09;;;;;;;3.00;2.80;;;28.50;51.50;;;;;;5024040;28;20440;-52
2021/06/24 08:42:35;;;;;;;2.73;2.53;;;28.50;50.80;;;;;;5027904;28;20446;-50
2021/06/24 08:45:02;;;;;;;4.70;2.73;;;28.20;51.50;;;;;;5028920;28;20436;-52
2021/06/24 08:47:29;;;;;;;3.23;3.03;;;28.40;51.30;;;;;;5030598;28;20468;-48
2021/06/24 08:49:59;;;;;;;3.30;3.10;;;28.50;51.10;;;;;;5030646;28;20435;-53
2021/06/24 08:52:25;;;;;;;6.03;3.00;;;28.50;51.30;;;;;;5020283;28;20443;-51
2021/06/24 08:54:51;;;;;;;3.00;2.80;;;28.60;51.20;;;;;;5017209;28;20810;-49
2021/06/24 08:57:18;;;;;;;3.63;3.03;;;28.60;50.90;;;;;;5015102;28;20586;-49
2021/06/24 08:59:44;;;;;;;3.20;3.00;;;28.60;51.10;;;;;;5022359;28;20455;-52
2021/06/24 09:02:11;;;;;;;4.20;3.27;;;28.50;50.90;;;;;;5023158;28;20428;-49
2021/06/24 09:04:40;;;;;;;3.47;3.17;;;28.60;52.30;;;;;;5027091;28;20197;-50
2021/06/24 09:07:11;;;;;;;4.47;3.13;;;28.60;51.30;;;;;;5025677;28;20440;-49
2021/06/24 09:09:38;;;;;;;3.87;3.50;;;28.60;51.10;;;;;;5023132;28;20436;-47
2021/06/24 09:12:09;;;;;;;3.33;3.13;;;28.50;51.10;;;;;;5024654;28;20469;-51
2021/06/24 09:14:49;;;;;;;2.77;2.57;;;28.60;51.10;;;;;;5023454;28;20424;-49
2021/06/24 09:17:40;;;;;;;3.00;2.80;;;28.60;51.60;;;;;;5028362;28;20487;-48
2021/06/24 09:20:18;;;;;;;3.37;3.17;;;28.50;49.00;;;;;;5029777;28;20451;-51
2021/06/24 09:23:03;;;;;;;2.90;2.70;;;28.60;50.20;;;;;;5022525;28;20530;-50
2021/06/24 09:25:29;;;;;;;3.80;3.50;;;28.60;51.60;;;;;;5026744;28;20432;-48
2021/06/24 09:27:54;;;;;;;2.93;2.73;;;28.80;51.30;;;;;;5031441;28;20431;-48
2021/06/24 09:30:31;;;;;;;2.97;2.77;;;29.00;50.90;;;;;;5028794;28;20201;-48
2021/06/24 09:33:05;;;;;;;3.60;3.17;;;29.10;50.10;;;;;;5028502;28;20767;-52
2021/06/24 09:35:31;;;;;;;2.80;2.50;;;29.30;50.10;;;;;;5028650;28;20435;-52
2021/06/24 09:38:06;;;;;;;3.00;2.80;;;29.40;49.80;;;;;;5031566;28;21065;-51
2021/06/24 09:40:48;;;;;;;2.63;2.40;;;29.50;48.20;;;;;;5026733;28;20201;-49
2021/06/24 09:43:36;;;;;;;2.93;2.60;;;29.60;47.40;;;;;;5030440;28;20451;-49
2021/06/24 09:46:19;;;;;;;3.03;2.77;;;29.60;47.20;;;;;;5031742;28;20831;-53
2021/06/24 09:48:44;;;;;;;2.60;2.40;;;29.70;46.70;;;;;;5027337;28;21036;-48
2021/06/24 09:51:23;;;;;;;3.70;2.60;;;29.60;46.60;;;;;;5025933;28;20440;-51
2021/06/24 09:54:05;;;;;;;2.80;2.60;;;29.70;48.10;;;;;;5024913;28;20205;-49
2021/06/24 09:56:34;;;;;;;3.20;2.63;;;29.80;47.30;;;;;;5026034;28;20998;-48
2021/06/24 09:59:03;;;;;;;3.67;2.60;;;29.90;48.10;;;;;;5033325;28;20774;-47
2021/06/24 10:02:04;;;;;;;4.33;3.03;;;29.90;47.30;;;;;;5030780;28;21057;-51
2021/06/24 10:04:33;;;;;;;2.53;2.23;;;30.20;48.40;;;;;;5016094;28;20517;-50
2021/06/24 10:07:02;;;;;;;2.83;2.50;;;30.40;46.10;;;;;;5033549;28;20451;-47
2021/06/24 10:09:28;;;;;;;3.50;3.00;;;30.60;47.40;;;;;;5032791;28;20443;-47
2021/06/24 10:11:55;;;;;;;3.97;3.10;;;30.70;45.60;;;;;;5031721;28;20474;-49
2021/06/24 10:14:21;;;;;;;5.20;3.07;;;30.70;44.70;;;;;;5032590;28;20432;-48
2021/06/24 10:17:02;;;;;;;6.03;3.00;;;30.90;45.50;;;;;;5033471;28;20478;-49
2021/06/24 10:19:52;;;;;;;3.00;2.80;;;30.90;45.30;;;;;;5022645;28;20570;-47
2021/06/24 10:22:24;;;;;;;5.23;2.67;;;30.60;43.40;;;;;;5032681;28;20428;-48
2021/06/24 10:25:00;;;;;;;2.93;2.63;;;30.60;44.10;;;;;;5032148;28;20832;-47
2021/06/24 10:27:35;;;;;;;3.50;2.70;;;30.60;43.50;;;;;;5032876;28;20435;-49
2021/06/24 10:30:14;;;;;;;2.70;2.50;;;29.70;44.20;;;;;;5033283;28;21004;-48
2021/06/24 10:32:56;;;;;;;2.50;2.40;;;29.90;45.10;;;;;;5030232;28;20498;-47
2021/06/24 10:35:24;;;;;;;3.47;2.80;;;30.40;44.20;;;;;;5031599;28;20459;-48
2021/06/24 10:37:51;;;;;;;2.73;2.40;;;30.60;43.50;;;;;;5028588;28;20501;-47
2021/06/24 10:40:32;;;;;;;3.60;2.20;;;30.40;43.90;;;;;;5022225;28;20847;-48
2021/06/24 10:42:59;;;;;;;2.73;2.00;;;30.50;43.40;;;;;;5029683;28;20451;-49
2021/06/24 10:45:26;;;;;;;2.37;2.27;;;30.80;44.50;;;;;;5026836;28;20435;-49
2021/06/24 10:47:55;;;;;;;2.03;1.93;;;31.00;43.80;;;;;;5031474;28;20949;-50
2021/06/24 10:50:30;;;;;;;2.33;2.13;;;31.10;42.40;;;;;;5015944;28;20435;-49
2021/06/24 10:52:59;;;;;;;3.40;2.53;;;31.20;42.40;;;;;;5029786;28;20440;-49
2021/06/24 10:55:31;;;;;;;2.30;2.10;;;31.20;42.80;;;;;;5031019;28;20428;-49
2021/06/24 10:57:57;;;;;;;2.20;2.10;;;30.90;43.20;;;;;;5032643;28;20518;-48
2021/06/24 11:00:35;;;;;;;2.10;2.00;;;30.10;44.30;;;;;;5030650;28;20821;-49
2021/06/24 11:03:03;;;;;;;2.70;2.50;;;29.60;45.20;;;;;;5031875;28;20436;-48
2021/06/24 11:05:45;;;;;;;2.43;2.33;;;29.90;45.00;;;;;;5031577;28;20436;-49
2021/06/24 11:08:17;;;;;;;3.30;2.37;;;29.90;45.10;;;;;;5013597;28;20433;-48
2021/06/24 11:10:58;;;;;;;1.97;1.87;;;30.00;44.90;;;;;;5017980;28;20489;-48
2021/06/24 11:16:02;;;;;;;5.30;2.23;;;29.30;45.40;;;;;;5031695;28;21272;-51
2021/06/24 11:18:30;;;;;;;2.20;2.00;;;29.40;46.10;;;;;;5032369;28;20533;-49
2021/06/24 11:21:03;;;;;;;3.30;2.30;;;29.80;46.30;;;;;;5026595;28;20201;-49
2021/06/24 11:23:33;;;;;;;2.10;2.00;;;30.10;43.40;;;;;;5030181;28;20436;-48
2021/06/24 11:26:12;;;;;;;2.00;1.90;;;30.30;42.40;;;;;;5027597;28;20482;-49
2021/06/24 11:28:48;;;;;;;3.53;2.20;;;30.40;42.90;;;;;;5029029;28;20448;-51
2021/06/24 11:31:16;;;;;;;1.93;1.63;;;30.60;43.20;;;;;;5029214;28;20443;-51
2021/06/24 11:33:52;;;;;;;3.93;2.20;;;30.90;43.90;;;;;;5027956;28;20490;-53
2021/06/24 11:36:20;;;;;;;2.03;1.93;;;31.00;41.70;;;;;;5023645;28;20444;-52
2021/06/24 11:38:47;;;;;;;1.80;1.60;;;30.90;41.50;;;;;;5027603;28;20496;-52
2021/06/24 11:41:15;;;;;;;2.07;1.97;;;30.70;41.80;;;;;;5028623;28;20783;-52
2021/06/24 11:43:55;;;;;;;2.40;2.13;;;31.00;42.70;;;;;;5021484;28;20457;-53
2021/06/24 11:46:29;;;;;;;1.97;1.80;;;31.10;41.40;;;;;;5023235;28;20446;-52
2021/06/24 12:05:10;;;;;;;2.10;1.93;;;31.10;41.10;;;;;;5027133;28;20437;-52
2021/06/24 12:07:37;;;;;;;1.90;1.80;;;31.50;41.30;;;;;;5027192;28;20479;-51
2021/06/24 12:10:05;;;;;;;2.10;2.00;;;31.70;39.50;;;;;;5026817;28;20443;-49
2021/06/24 12:12:32;;;;;;;2.20;2.00;;;31.50;39.60;;;;;;5026561;28;20486;-48
2021/06/24 12:15:02;;;;;;;2.07;1.87;;;31.20;40.10;;;;;;5024918;28;21134;-50
2021/06/24 12:17:30;;;;;;;1.90;1.80;;;31.10;40.30;;;;;;5028100;28;21402;-49
2021/06/24 12:19:57;;;;;;;2.17;2.07;;;30.70;40.50;;;;;;5029629;28;20444;-48
2021/06/24 12:22:40;;;;;;;2.00;1.90;;;30.30;41.20;;;;;;5024524;28;20473;-49
2021/06/24 12:25:20;;;;;;;2.00;1.90;;;30.40;42.90;;;;;;5027492;28;20490;-49
2021/06/24 12:27:57;;;;;;;2.10;1.90;;;30.70;42.10;;;;;;5026551;28;20448;-51
2021/06/24 12:30:25;;;;;;;1.80;1.67;;;31.00;41.80;;;;;;5019489;28;20466;-50
2021/06/24 12:32:58;;;;;;;1.97;1.87;;;31.10;41.10;;;;;;5021786;28;20505;-51
2021/06/24 12:35:24;;;;;;;2.00;1.90;;;31.30;41.70;;;;;;5021570;28;20440;-49
2021/06/24 12:37:52;;;;;;;2.30;1.87;;;31.40;40.60;;;;;;5028470;28;20486;-50
2021/06/24 12:40:19;;;;;;;2.13;2.03;;;31.30;40.60;;;;;;5024457;28;20189;-49
2021/06/24 12:42:48;;;;;;;1.70;1.60;;;31.40;40.40;;;;;;5023093;28;20439;-51
2021/06/24 12:45:16;;;;;;;2.00;1.90;;;31.30;40.10;;;;;;5026390;28;20474;-51
2021/06/24 12:47:44;;;;;;;1.77;1.67;;;31.30;40.80;;;;;;5028851;28;22101;-52
2021/06/24 12:50:09;;;;;;;1.73;1.60;;;31.20;40.40;;;;;;5020200;28;20891;-50
2021/06/24 12:52:35;;;;;;;1.50;1.50;;;31.20;40.40;;;;;;5018806;28;20515;-48
2021/06/24 12:55:01;;;;;;;2.20;1.93;;;31.20;41.10;;;;;;5027050;28;20276;-51
2021/06/24 12:57:26;;;;;;;1.83;1.73;;;31.00;40.90;;;;;;5025503;28;20221;-52
2021/06/24 12:59:52;;;;;;;2.00;1.90;;;31.00;40.70;;;;;;5020393;28;20189;-49
2021/06/24 13:02:17;;;;;;;1.70;1.60;;;30.90;41.00;;;;;;5029970;28;20196;-49
2021/06/24 13:04:43;;;;;;;1.90;1.80;;;30.90;40.90;;;;;;5022715;28;20202;-48
2021/06/24 13:07:09;;;;;;;1.90;1.80;;;31.10;40.40;;;;;;5027579;28;20192;-52